Aérodrome :
LOGIN :

S'inscrire | Disclaimer

   EN    FR    IT 

 










Légende :    VFR   VFR Marginal   IFR   IFR Intensif   IFR Très Intensif
Visi : 
Plafond : 
>= 8 km
>= 3000ft
5 à 8 km
1000 à 3000 ft
1500m à 5 km
500 à 1000 ft
800 à 1500m
200 à 500 ft
< 800m
< 200 ft
Symboles :   Orages  Brouillard  Fortes neiges  Fortes précipitations  Vent > 20 kt
SIGMETs :   Divers  Orages  Givrage  Turbulence  Onde Orograph.  Cendres Volcan.







- Altitude de l'aérodrome : 157 ft
- Code IATA : LIL
- Voir les cartes d'approche


LFQQ - Lille Lesquin

DERNIER METAR :
  • 241200Z AUTO 24007KT 9999 FEW021 10/05 Q1011 TEMPO 3000 SHRA BKN008 BKN020CB

METARs EXPIRÉS :
  • 241130Z AUTO 23007KT CAVOK 10/06 Q1011 TEMPO 3000 SHRA BKN008 BKN020CB
  • 241100Z AUTO 22006KT CAVOK 10/06 Q1011 NOSIG
  • 241030Z AUTO 21005KT CAVOK 09/06 Q1011 NOSIG
  • 241000Z AUTO 24005KT CAVOK 09/06 Q1011 NOSIG
  • 240930Z AUTO 25005KT CAVOK 08/06 Q1010 NOSIG

TAF TAF LFQQ
Valide du 24 à 12h jusqu'au 25 à 18h UTC


241100Z 2412/2518 21006KT CAVOK
TEMPO 2412/2417 3000 SHRA BKN008 BKN020CB
BECMG 2506/2509 33010KT
ATIS : +33 3 20 16 19 54
Pas de NOTAMs connus pour ce terrain.



MET'MAP, la Météo Aéronautique d'un coup d'oeil ! - Copyright ORBIFLY Décembre 2007 - Disclaimer

ORBIFLY MET'MAP TEAM :

Programmation & Développement : Alexandra Zaïnal
Conception & Développement : Baudouin d'Aumeries
Co-Programmation & Développement : Marc-Olivier Méhu
Soutien technique & logistique : Manuel Goepfert

Contact : metmap@orbifly.com




SOURCES & CREDITS :

   NOAA